Time;durP1;ratioP1;P1;durP2;ratioP2;P2;SDS_P1;SDS_P2;PMS_P1;PMS_P2;Temp;Humidity;BMP_temperature;BMP_pressure;BME280_temperature;BME280_humidity;BME280_pressure;Samples;Min_cycle;Max_cycle;Signal;HPM_P1;HPM_P2
2021/03/04 00:00:39;;;;;;;28.83;16.07;;;;;;;-0.80;77.79;99852.50;1818141;78;21602;-78
2021/03/04 00:03:09;;;;;;;34.18;17.32;;;;;;;-0.86;77.92;99856.94;1814566;78;21207;-79
2021/03/04 00:05:37;;;;;;;28.02;15.83;;;;;;;-0.81;77.76;99857.27;1813334;79;21114;-79
2021/03/04 00:08:06;;;;;;;33.28;18.23;;;;;;;-0.88;77.89;99845.72;1823297;78;21146;-78
2021/03/04 00:10:34;;;;;;;31.70;16.57;;;;;;;-0.83;77.77;99848.23;1820340;78;21148;-78
2021/03/04 00:13:01;;;;;;;28.80;15.63;;;;;;;-0.91;77.92;99835.84;1808322;78;21671;-78
2021/03/04 00:15:31;;;;;;;29.50;14.98;;;;;;;-0.87;77.89;99845.27;1806166;78;21318;-79
2021/03/04 00:17:58;;;;;;;30.45;15.25;;;;;;;-0.90;78.08;99838.39;1822772;77;21192;-79
2021/03/04 00:20:30;;;;;;;25.65;12.95;;;;;;;-0.83;78.12;99826.16;1851248;77;21182;-79
2021/03/04 00:23:00;;;;;;;23.10;12.37;;;;;;;-0.86;78.54;99827.08;1832162;77;21177;-79
2021/03/04 00:25:32;;;;;;;22.42;12.35;;;;;;;-0.78;78.69;99827.33;1800851;78;21238;-78
2021/03/04 00:49:53;;;;;;;24.92;13.50;;;;;;;-0.76;80.63;99797.00;1753271;76;22481;-78
2021/03/04 00:52:20;;;;;;;34.45;14.73;;;;;;;-0.68;80.46;99802.86;1767783;81;21635;-78
2021/03/04 00:54:47;;;;;;;28.30;12.60;;;;;;;-0.71;80.49;99794.69;1761954;81;21197;-79
2021/03/04 00:57:15;;;;;;;27.80;13.38;;;;;;;-0.70;80.61;99791.20;1755709;81;21146;-78
2021/03/04 00:59:44;;;;;;;33.98;14.03;;;;;;;-0.56;80.29;99783.09;1753191;81;21190;-78
2021/03/04 01:02:11;;;;;;;28.17;13.53;;;;;;;-0.59;80.46;99777.98;1768004;81;21166;-78
2021/03/04 01:04:39;;;;;;;30.32;13.72;;;;;;;-0.67;80.75;99773.41;1748999;81;21146;-78
2021/03/04 01:07:06;;;;;;;29.65;14.10;;;;;;;-0.54;80.61;99766.16;1767954;81;21202;-78
2021/03/04 01:09:33;;;;;;;29.23;13.45;;;;;;;-0.45;80.45;99758.59;1772225;81;21177;-79
2021/03/04 01:12:01;;;;;;;29.15;13.50;;;;;;;-0.52;80.70;99749.65;1771625;80;21202;-79
2021/03/04 01:14:29;;;;;;;28.52;14.20;;;;;;;-0.55;80.85;99756.23;1750354;81;21394;-78
2021/03/04 01:16:58;;;;;;;30.85;13.38;;;;;;;-0.39;80.54;99732.00;1768983;81;21257;-78
2021/03/04 01:19:26;;;;;;;31.90;14.58;;;;;;;-0.38;80.63;99731.58;1758149;79;21236;-78
2021/03/04 01:21:53;;;;;;;30.77;14.13;;;;;;;-0.44;80.88;99720.03;1743315;81;21189;-78
2021/03/04 01:24:20;;;;;;;28.95;14.18;;;;;;;-0.40;80.82;99724.25;1745892;81;21623;-78
2021/03/04 01:26:48;;;;;;;33.33;15.23;;;;;;;-0.29;80.57;99714.89;1756044;81;21164;-78
2021/03/04 01:29:15;;;;;;;28.60;12.85;;;;;;;-0.36;80.83;99716.77;1749354;82;21195;-78
2021/03/04 01:31:42;;;;;;;32.05;14.75;;;;;;;-0.39;81.03;99716.87;1749545;81;21203;-78
2021/03/04 01:34:10;;;;;;;32.25;15.38;;;;;;;-0.22;80.66;99719.02;1751061;81;21541;-78
2021/03/04 01:36:38;;;;;;;33.75;14.80;;;;;;;-0.25;80.66;99708.72;1745154;81;21224;-78
2021/03/04 01:39:06;;;;;;;29.50;14.65;;;;;;;-0.34;80.95;99696.81;1748664;81;21685;-77
2021/03/04 01:41:34;;;;;;;36.17;16.40;;;;;;;-0.30;81.02;99698.89;1740852;81;21323;-77
2021/03/04 01:44:02;;;;;;;33.80;15.95;;;;;;;-0.19;80.71;99697.70;1747462;81;21250;-78
2021/03/04 01:46:29;;;;;;;32.58;15.03;;;;;;;-0.23;80.89;99690.89;1747794;81;21556;-78
2021/03/04 01:48:57;;;;;;;36.70;15.08;;;;;;;-0.29;81.08;99691.50;1744761;82;21183;-79
2021/03/04 01:51:25;;;;;;;34.25;15.83;;;;;;;-0.19;80.89;99686.00;1750913;81;21535;-78
2021/03/04 01:53:52;;;;;;;37.67;16.90;;;;;;;-0.15;80.84;99687.20;1767287;81;21240;-79
2021/03/04 01:56:23;;;;;;;33.55;15.55;;;;;;;-0.24;81.12;99680.08;1773515;81;21162;-78
2021/03/04 01:58:50;;;;;;;37.13;16.62;;;;;;;-0.21;81.17;99679.98;1756476;81;21175;-78
2021/03/04 02:01:18;;;;;;;34.50;14.60;;;;;;;-0.11;80.89;99673.25;1747125;81;21225;-78
2021/03/04 02:03:46;;;;;;;38.58;16.07;;;;;;;-0.16;81.13;99668.17;1750696;81;21186;-78
2021/03/04 02:06:13;;;;;;;36.77;17.07;;;;;;;-0.24;81.39;99660.58;1756627;81;21196;-78
2021/03/04 02:08:45;;;;;;;36.70;16.27;;;;;;;-0.11;81.19;99661.09;1729551;81;21202;-78
2021/03/04 02:11:20;;;;;;;38.98;17.60;;;;;;;-0.04;81.03;99641.84;1748882;81;21232;-79
2021/03/04 02:14:00;;;;;;;39.23;16.87;;;;;;;-0.09;81.35;99638.95;1755844;81;21632;-78
2021/03/04 02:16:37;;;;;;;39.08;17.45;;;;;;;-0.12;81.52;99639.89;1745088;81;21153;-78
2021/03/04 02:19:38;;;;;;;41.30;18.70;;;;;;;0.03;81.21;99628.67;1722354;82;21171;-78
2021/03/04 02:59:31;;;;;;;49.08;20.27;;;;;;;0.31;81.81;99571.47;1824604;78;21165;-79
2021/03/04 03:01:59;;;;;;;49.23;21.45;;;;;;;0.25;82.07;99569.89;1813627;78;21131;-79
2021/03/04 03:04:27;;;;;;;48.33;20.95;;;;;;;0.31;82.00;99559.77;1817713;78;21194;-79
2021/03/04 03:06:57;;;;;;;53.75;22.95;;;;;;;0.46;81.65;99549.30;1792653;79;21202;-79
2021/03/04 03:09:24;;;;;;;56.15;22.40;;;;;;;0.42;81.79;99547.27;1750618;80;21194;-79
2021/03/04 03:11:51;;;;;;;53.42;21.68;;;;;;;0.35;81.97;99545.75;1794577;78;21368;-79
2021/03/04 03:14:19;;;;;;;53.80;22.67;;;;;;;0.41;81.94;99532.55;1788880;79;21191;-78
2021/03/04 03:16:46;;;;;;;49.42;21.95;;;;;;;0.56;81.56;99529.05;1786351;79;21877;-79
2021/03/04 03:19:15;;;;;;;55.50;23.07;;;;;;;0.51;81.65;99520.08;1795535;77;21200;-77
2021/03/04 03:21:43;;;;;;;45.78;20.97;;;;;;;0.44;81.89;99532.45;1789408;79;21143;-77
2021/03/04 03:24:12;;;;;;;52.17;22.27;;;;;;;0.53;81.75;99517.45;1795092;78;21234;-78
2021/03/04 03:26:40;;;;;;;51.35;23.00;;;;;;;0.61;81.47;99522.78;1802215;78;21508;-78
2021/03/04 03:29:07;;;;;;;46.75;20.12;;;;;;;0.54;81.67;99524.33;1794635;78;21136;-78
2021/03/04 03:31:35;;;;;;;51.28;22.87;;;;;;;0.49;81.89;99520.59;1800041;79;21191;-79
2021/03/04 03:34:04;;;;;;;53.42;22.70;;;;;;;0.63;81.57;99506.67;1793639;78;21161;-79
2021/03/04 03:36:33;;;;;;;56.80;24.30;;;;;;;0.63;81.53;99500.63;1769483;78;21186;-79
2021/03/04 03:39:07;;;;;;;52.33;21.68;;;;;;;0.55;81.71;99494.81;1793230;78;21298;-78
2021/03/04 03:41:35;;;;;;;46.25;20.90;;;;;;;0.56;81.73;99497.82;1785732;79;21178;-78
2021/03/04 03:44:03;;;;;;;50.43;22.10;;;;;;;0.68;81.43;99489.61;1789642;79;21172;-79
2021/03/04 03:46:32;;;;;;;49.25;21.55;;;;;;;0.61;81.57;99483.73;1776040;79;21167;-79
2021/03/04 03:49:05;;;;;;;52.83;21.82;;;;;;;0.52;81.82;99481.92;1757599;80;21187;-79
2021/03/04 03:51:34;;;;;;;48.30;21.57;;;;;;;0.65;81.52;99484.49;1778740;79;21448;-79
2021/03/04 03:54:04;;;;;;;54.60;23.00;;;;;;;0.68;81.41;99470.09;1765884;79;21667;-79
2021/03/04 04:20:24;;;;;;;49.10;22.50;;;;;;;0.49;81.01;99399.61;1754136;79;21594;-79
2021/03/04 04:22:53;;;;;;;48.68;22.02;;;;;;;0.47;80.78;99397.50;1759220;81;21628;-79
2021/03/04 04:25:22;;;;;;;51.92;23.02;;;;;;;0.38;80.90;99402.56;1726729;81;21623;-78
2021/03/04 04:27:51;;;;;;;51.80;22.40;;;;;;;0.31;80.95;99407.59;1727550;82;21209;-79
2021/03/04 04:30:20;;;;;;;53.58;22.98;;;;;;;0.41;80.52;99386.00;1688975;84;21234;-79
2021/03/04 04:32:48;;;;;;;49.60;22.20;;;;;;;0.33;80.52;99383.66;1726724;81;21234;-79
2021/03/04 04:35:16;;;;;;;49.73;22.90;;;;;;;0.20;80.69;99378.48;1702178;83;21227;-78
2021/03/04 04:37:44;;;;;;;47.30;20.90;;;;;;;0.19;80.64;99374.19;1718953;82;21220;-78
2021/03/04 04:40:12;;;;;;;50.23;21.77;;;;;;;0.25;80.30;99373.52;1682454;84;21199;-78
2021/03/04 04:42:39;;;;;;;51.85;21.55;;;;;;;0.16;80.39;99381.17;1728465;81;21233;-79
2021/03/04 04:45:08;;;;;;;43.68;20.40;;;;;;;0.07;80.61;99377.59;1668257;84;21715;-78
2021/03/04 04:47:35;;;;;;;43.15;20.62;;;;;;;0.16;80.34;99375.97;1687256;82;21297;-79
2021/03/04 04:50:05;;;;;;;47.20;21.20;;;;;;;0.14;80.22;99358.30;1715341;82;21590;-78
2021/03/04 04:52:34;;;;;;;47.95;20.50;;;;;;;0.06;80.40;99369.84;1699560;82;21187;-78
2021/03/04 04:55:02;;;;;;;58.98;25.65;;;;;;;0.06;80.38;99365.48;1671353;83;21617;-79
2021/03/04 04:57:29;;;;;;;69.03;30.27;;;;;;;0.18;80.05;99372.48;1681687;83;21188;-79
2021/03/04 04:59:57;;;;;;;74.85;29.25;;;;;;;0.12;80.17;99363.98;1690734;84;21192;-79
2021/03/04 05:02:24;;;;;;;64.12;28.80;;;;;;;0.04;80.33;99364.70;1693048;83;21756;-79
2021/03/04 05:04:51;;;;;;;71.53;31.10;;;;;;;0.10;80.18;99355.84;1700253;84;21184;-79
2021/03/04 05:07:18;;;;;;;67.10;30.62;;;;;;;0.16;79.84;99343.47;1682005;83;21195;-79
2021/03/04 05:09:47;;;;;;;73.20;29.75;;;;;;;0.09;80.06;99345.90;1729314;80;21178;-79
2021/03/04 05:12:16;;;;;;;60.78;27.90;;;;;;;0.07;80.33;99345.55;1693441;83;21223;-78
2021/03/04 05:14:46;;;;;;;60.23;26.37;;;;;;;0.37;80.14;99343.66;1681610;84;21222;-78
2021/03/04 05:17:13;;;;;;;59.90;27.45;;;;;;;0.57;79.87;99335.12;1653085;85;21212;-79
2021/03/04 05:19:41;;;;;;;53.63;23.52;;;;;;;0.72;79.76;99327.22;1671363;85;21226;-79
2021/03/04 05:22:08;;;;;;;51.53;25.17;;;;;;;0.89;79.54;99325.28;1716489;81;21186;-80
2021/03/04 05:24:36;;;;;;;60.65;27.07;;;;;;;1.20;78.69;99318.06;1706915;82;21227;-81
2021/03/04 05:27:04;;;;;;;63.15;27.00;;;;;;;1.36;78.38;99318.33;1723803;82;21186;-82
2021/03/04 05:29:32;;;;;;;54.48;25.60;;;;;;;1.40;78.16;99318.59;1734789;81;21188;-79
2021/03/04 05:31:59;;;;;;;53.42;24.98;;;;;;;1.47;78.10;99314.82;1711220;81;21192;-79
2021/03/04 05:34:27;;;;;;;51.42;24.57;;;;;;;1.74;77.51;99306.36;1701864;82;21178;-81
2021/03/04 05:36:54;;;;;;;63.78;29.52;;;;;;;1.90;77.08;99300.03;1712948;81;21202;-80
2021/03/04 05:39:21;;;;;;;86.40;34.23;;;;;;;1.94;76.98;99299.45;1729955;82;21179;-80
2021/03/04 05:41:48;;;;;;;82.70;34.48;;;;;;;1.88;76.85;99297.09;1737120;81;21207;-80
2021/03/04 05:44:16;;;;;;;71.57;30.77;;;;;;;1.84;76.90;99287.72;1710629;82;21171;-80
2021/03/04 05:46:46;;;;;;;51.28;24.50;;;;;;;1.95;76.57;99288.95;1698083;81;21607;-80
2021/03/04 05:49:16;;;;;;;55.40;26.57;;;;;;;1.89;76.61;99285.76;1689581;81;22282;-80
2021/03/04 05:51:48;;;;;;;52.73;24.90;;;;;;;1.82;76.90;99279.96;1686202;83;21169;-82
2021/03/04 05:54:16;;;;;;;48.15;25.60;;;;;;;1.84;76.92;99282.03;1670188;84;21254;-81
2021/03/04 05:56:43;;;;;;;55.00;24.27;;;;;;;2.16;76.68;99285.50;1705335;83;21144;-82
2021/03/04 05:59:11;;;;;;;51.90;23.12;;;;;;;2.34;76.32;99286.02;1657405;83;21191;-85
2021/03/04 06:01:38;;;;;;;54.00;26.05;;;;;;;2.45;76.10;99283.75;1667700;84;21219;-84
2021/03/04 06:04:06;;;;;;;47.40;23.10;;;;;;;2.57;75.77;99274.99;1718636;82;21259;-85
2021/03/04 06:06:34;;;;;;;49.75;25.45;;;;;;;2.74;75.39;99273.78;1711526;81;22295;-87
2021/03/04 06:09:02;;;;;;;51.23;24.95;;;;;;;3.01;74.81;99282.56;1700539;81;21209;-84
2021/03/04 06:11:30;;;;;;;55.12;26.95;;;;;;;3.07;74.60;99277.50;1683003;85;21672;-84
2021/03/04 06:13:58;;;;;;;56.02;27.95;;;;;;;3.09;74.48;99273.89;1716810;82;21573;-85
2021/03/04 06:16:25;;;;;;;52.50;24.92;;;;;;;3.12;74.29;99267.70;1709064;83;21190;-82
2021/03/04 06:18:53;;;;;;;56.73;26.07;;;;;;;3.23;74.12;99258.03;1720193;82;21172;-82
2021/03/04 06:21:23;;;;;;;56.45;27.35;;;;;;;3.43;73.50;99256.60;1731645;82;21186;-82
2021/03/04 06:23:53;;;;;;;55.83;26.12;;;;;;;3.46;73.52;99256.08;1729632;81;21173;-82
2021/03/04 06:26:35;;;;;;;55.12;25.52;;;;;;;3.44;73.48;99243.92;1719955;81;21356;-82
2021/03/04 06:28:59;;;;;;;51.88;25.80;;;;;;;3.46;73.41;99239.09;1734570;81;21657;-88
2021/03/04 06:31:26;;;;;;;50.15;25.57;;;;;;;3.58;73.10;99226.69;1728572;82;21200;-86
2021/03/04 06:33:56;;;;;;;57.98;26.48;;;;;;;3.72;72.89;99226.00;1718411;81;21221;-86
2021/03/04 06:36:24;;;;;;;54.18;26.85;;;;;;;3.74;72.98;99220.25;1709317;82;21177;-86
2021/03/04 06:38:57;;;;;;;51.05;24.92;;;;;;;3.77;72.93;99217.02;1703832;83;21243;-83
2021/03/04 06:41:24;;;;;;;53.38;25.97;;;;;;;3.86;72.87;99211.78;1707301;82;21172;-83
2021/03/04 06:44:02;;;;;;;48.83;26.17;;;;;;;4.11;72.12;99197.41;1688922;84;21219;-83
2021/03/04 06:46:30;;;;;;;54.42;27.30;;;;;;;4.21;71.82;99192.55;1686067;83;21227;-84
2021/03/04 06:48:58;;;;;;;53.52;26.60;;;;;;;4.24;71.78;99191.06;1659166;85;21231;-84
2021/03/04 06:51:25;;;;;;;49.20;24.82;;;;;;;4.28;71.64;99195.20;1711040;81;21253;-81
2021/03/04 06:53:53;;;;;;;47.73;25.23;;;;;;;4.38;71.30;99189.03;1727317;82;21204;-82
2021/03/04 06:56:29;;;;;;;51.00;25.50;;;;;;;4.58;70.65;99186.17;1718654;82;21230;-84
2021/03/04 06:59:01;;;;;;;51.13;26.97;;;;;;;4.64;70.71;99183.66;1740073;80;21350;-83
2021/03/04 07:01:29;;;;;;;51.58;25.82;;;;;;;4.68;70.58;99176.48;1737664;81;21316;-82
2021/03/04 07:03:57;;;;;;;53.35;26.35;;;;;;;4.72;70.24;99177.55;1700821;82;21182;-86
2021/03/04 07:06:26;;;;;;;45.40;23.90;;;;;;;4.77;70.16;99176.00;1702329;83;21185;-86
2021/03/04 07:08:55;;;;;;;48.02;25.02;;;;;;;5.00;69.65;99172.53;1684507;83;21675;-87
2021/03/04 07:11:24;;;;;;;49.98;24.07;;;;;;;5.11;69.06;99173.25;1715822;83;21202;-86
2021/03/04 07:13:52;;;;;;;51.50;25.52;;;;;;;5.14;68.70;99160.81;1698938;83;21244;-86
2021/03/04 07:16:25;;;;;;;48.00;26.55;;;;;;;5.17;68.65;99159.80;1710135;83;21270;-86
2021/03/04 07:18:56;;;;;;;47.38;24.63;;;;;;;5.20;68.42;99158.30;1704295;83;21220;-85
2021/03/04 07:21:26;;;;;;;47.95;24.57;;;;;;;5.28;68.10;99148.67;1704460;83;21182;-86
2021/03/04 07:47:48;;;;;;;46.37;24.55;;;;;;;6.05;65.85;99106.91;1765210;79;21298;-85
2021/03/04 07:50:20;;;;;;;42.33;23.38;;;;;;;6.12;65.64;99097.34;1739250;81;21163;-85
2021/03/04 07:52:49;;;;;;;42.88;22.77;;;;;;;6.19;65.42;99101.26;1718071;83;21342;-85
2021/03/04 07:55:17;;;;;;;43.10;22.42;;;;;;;6.26;65.30;99091.23;1749166;81;21181;-86
2021/03/04 07:57:46;;;;;;;46.83;23.55;;;;;;;6.42;64.79;99091.95;1750526;81;21161;-86
2021/03/04 08:00:17;;;;;;;45.55;24.43;;;;;;;6.58;64.18;99089.66;1722191;81;21206;-88
2021/03/04 08:02:45;;;;;;;45.15;24.85;;;;;;;6.63;64.17;99078.37;1710487;81;21171;-88
2021/03/04 08:05:21;;;;;;;39.67;23.20;;;;;;;6.68;64.08;99073.18;1703395;84;21635;-86
2021/03/04 08:07:50;;;;;;;44.77;23.27;;;;;;;6.71;63.71;99069.51;1697656;84;21338;-85
2021/03/04 08:10:21;;;;;;;41.80;22.15;;;;;;;6.72;63.57;99062.00;1725798;82;21147;-85
2021/03/04 08:13:00;;;;;;;41.35;23.70;;;;;;;6.73;63.46;99057.95;1773626;80;21155;-85
2021/03/04 08:15:40;;;;;;;44.27;23.75;;;;;;;6.78;63.48;99055.48;1772789;80;21220;-86
2021/03/04 08:18:21;;;;;;;43.60;23.02;;;;;;;6.85;63.54;99044.95;1716400;80;21437;-86
2021/03/04 08:20:51;;;;;;;44.25;23.67;;;;;;;7.04;63.19;99044.09;1729998;83;21183;-85
2021/03/04 08:23:20;;;;;;;42.83;22.98;;;;;;;7.26;62.51;99046.59;1729365;81;21340;-85
2021/03/04 08:25:48;;;;;;;42.85;22.37;;;;;;;7.31;62.42;99041.02;1731504;81;21218;-86
2021/03/04 08:28:23;;;;;;;39.75;21.62;;;;;;;7.33;61.74;99033.39;1743369;81;21197;-86
2021/03/04 08:30:51;;;;;;;36.33;21.50;;;;;;;7.36;61.68;99031.03;1739975;81;21245;-85
2021/03/04 08:33:18;;;;;;;37.53;20.70;;;;;;;7.38;61.51;99031.29;1744790;81;21214;-86
2021/03/04 08:35:47;;;;;;;40.23;21.52;;;;;;;7.41;61.89;99022.83;1750782;81;21156;-85
2021/03/04 08:38:20;;;;;;;40.38;21.80;;;;;;;7.47;62.11;99031.63;1750091;81;21195;-85
2021/03/04 08:40:52;;;;;;;38.02;21.30;;;;;;;7.53;61.72;99015.39;1759990;81;21175;-87
2021/03/04 10:28:16;;;;;;;40.65;23.47;;;;;;;9.54;55.97;98845.00;1737126;80;21192;-80
2021/03/04 10:30:43;;;;;;;39.78;23.45;;;;;;;9.59;56.18;98840.19;1752013;81;21150;-83
2021/03/04 10:33:13;;;;;;;39.03;23.10;;;;;;;9.66;55.59;98837.38;1761894;81;21170;-80
2021/03/04 10:35:42;;;;;;;39.33;23.02;;;;;;;9.72;55.47;98837.84;1748238;81;21657;-80
2021/03/04 10:38:11;;;;;;;41.65;23.18;;;;;;;9.74;55.46;98828.84;1721869;83;21150;-81
2021/03/04 10:40:38;;;;;;;37.23;22.05;;;;;;;9.76;54.91;98820.32;1730866;82;21163;-83
2021/03/04 10:43:07;;;;;;;39.23;22.58;;;;;;;9.75;55.03;98821.28;1741465;81;21621;-81
2021/03/04 10:45:35;;;;;;;35.85;21.48;;;;;;;9.77;55.12;98818.51;1757283;81;21166;-80
2021/03/04 10:48:03;;;;;;;40.63;23.67;;;;;;;9.79;54.90;98814.77;1722842;82;21227;-80
2021/03/04 10:50:32;;;;;;;36.40;21.15;;;;;;;9.82;55.13;98797.37;1711366;84;21208;-79
2021/03/04 10:52:59;;;;;;;38.45;22.37;;;;;;;9.87;55.09;98802.26;1753545;81;21603;-79
2021/03/04 10:55:30;;;;;;;39.42;22.02;;;;;;;9.88;54.54;98790.73;1754836;81;21588;-79
2021/03/04 10:57:58;;;;;;;38.67;22.20;;;;;;;9.89;54.42;98782.35;1757218;81;21171;-79
2021/03/04 11:00:25;;;;;;;36.58;21.65;;;;;;;9.90;54.42;98775.61;1752759;81;21615;-79
2021/03/04 11:02:52;;;;;;;38.50;22.02;;;;;;;9.92;54.74;98760.95;1732674;82;21206;-79
2021/03/04 11:05:20;;;;;;;36.68;21.87;;;;;;;9.97;54.49;98764.05;1723078;82;21194;-80
2021/03/04 11:07:48;;;;;;;41.58;22.85;;;;;;;10.00;54.57;98761.17;1729288;82;21217;-79
2021/03/04 11:10:15;;;;;;;35.25;21.35;;;;;;;10.06;54.49;98755.34;1732573;82;21201;-80
2021/03/04 11:12:44;;;;;;;35.68;21.23;;;;;;;10.16;54.00;98760.70;1753195;81;21327;-78
2021/03/04 11:15:13;;;;;;;36.83;20.70;;;;;;;10.24;53.56;98778.05;1751245;81;21185;-79
2021/03/04 11:17:40;;;;;;;36.50;22.42;;;;;;;10.30;53.54;98776.70;1736709;82;21239;-79
2021/03/04 11:20:09;;;;;;;38.08;22.55;;;;;;;10.34;53.24;98779.44;1739306;82;21119;-79
2021/03/04 11:22:37;;;;;;;38.85;22.22;;;;;;;10.33;53.27;98775.97;1741156;82;21266;-79
2021/03/04 11:25:05;;;;;;;38.23;21.20;;;;;;;10.34;53.49;98770.19;1737710;82;21215;-79
2021/03/04 11:27:32;;;;;;;41.75;22.22;;;;;;;10.33;53.53;98768.05;1758235;81;21219;-79
2021/03/04 11:29:59;;;;;;;39.67;22.45;;;;;;;10.36;53.79;98756.87;1740707;81;21127;-79
2021/03/04 11:32:28;;;;;;;36.30;22.10;;;;;;;10.39;53.84;98756.13;1739078;82;21199;-79
2021/03/04 11:34:56;;;;;;;36.98;21.57;;;;;;;10.38;53.91;98747.84;1751220;81;21159;-78
2021/03/04 11:37:23;;;;;;;34.98;20.85;;;;;;;10.35;53.79;98756.51;1710850;83;21683;-79
2021/03/04 11:39:50;;;;;;;38.15;22.48;;;;;;;10.28;53.99;98754.84;1726686;81;21202;-78
2021/03/04 11:42:18;;;;;;;36.42;21.93;;;;;;;10.23;54.09;98746.02;1762848;81;21583;-78
2021/03/04 11:44:45;;;;;;;42.08;23.00;;;;;;;10.18;54.31;98741.61;1761847;81;21523;-79
2021/03/04 11:47:13;;;;;;;36.77;22.73;;;;;;;10.15;54.46;98732.59;1750724;81;21605;-78
2021/03/04 11:49:41;;;;;;;39.83;22.85;;;;;;;10.11;54.55;98738.63;1739094;82;21191;-78
2021/03/04 11:52:09;;;;;;;37.48;22.67;;;;;;;10.09;54.56;98725.19;1742919;81;21167;-79
2021/03/04 11:54:36;;;;;;;38.20;22.32;;;;;;;10.06;54.77;98726.78;1744266;81;21212;-79
2021/03/04 11:57:04;;;;;;;39.23;23.47;;;;;;;10.03;55.03;98726.56;1733536;82;21234;-79
2021/03/04 11:59:31;;;;;;;37.55;21.82;;;;;;;10.01;55.18;98725.84;1735507;82;21584;-79
2021/03/04 12:01:59;;;;;;;39.35;22.50;;;;;;;10.01;55.25;98721.88;1737049;82;21218;-79
2021/03/04 12:04:28;;;;;;;37.15;20.82;;;;;;;9.98;54.92;98720.83;1739773;82;21183;-79
2021/03/04 12:06:56;;;;;;;34.58;19.98;;;;;;;9.95;54.93;98707.89;1741950;82;21144;-80
2021/03/04 12:09:23;;;;;;;35.73;22.40;;;;;;;9.88;55.06;98694.34;1759049;81;21171;-74
2021/03/04 12:11:51;;;;;;;35.00;22.20;;;;;;;9.83;55.52;98692.58;1755894;81;21158;-75
2021/03/04 12:14:18;;;;;;;38.90;23.15;;;;;;;9.81;55.56;98705.09;1739308;82;21201;-79
2021/03/04 12:16:46;;;;;;;40.20;23.30;;;;;;;9.79;55.48;98693.81;1678580;83;21675;-80
2021/03/04 12:19:15;;;;;;;36.35;21.77;;;;;;;9.73;55.61;98690.36;1702691;83;21623;-79
2021/03/04 12:21:44;;;;;;;39.45;23.22;;;;;;;9.69;55.81;98688.45;1701039;84;21181;-79
2021/03/04 12:24:12;;;;;;;39.27;23.07;;;;;;;9.65;55.91;98691.86;1709235;84;21164;-79
2021/03/04 12:26:41;;;;;;;36.77;22.35;;;;;;;9.63;56.04;98684.53;1693057;83;21572;-79
2021/03/04 12:29:08;;;;;;;40.12;22.95;;;;;;;9.60;55.98;98686.09;1667315;86;21239;-80
2021/03/04 12:31:39;;;;;;;39.67;22.77;;;;;;;9.57;56.15;98683.72;1660971;85;21160;-79
2021/03/04 12:34:07;;;;;;;32.75;21.75;;;;;;;9.54;56.40;98689.27;1695758;84;21326;-79
2021/03/04 12:36:35;;;;;;;37.85;22.17;;;;;;;9.53;56.40;98683.63;1679696;84;21158;-79
2021/03/04 12:39:04;;;;;;;36.40;22.80;;;;;;;9.52;56.53;98670.07;1710719;83;21688;-78
2021/03/04 12:41:31;;;;;;;39.48;23.52;;;;;;;9.50;56.48;98678.59;1702201;83;21598;-78
2021/03/04 12:43:58;;;;;;;36.93;21.97;;;;;;;9.46;56.61;98680.67;1706957;83;21224;-79
2021/03/04 12:46:26;;;;;;;35.10;21.90;;;;;;;9.42;56.69;98669.98;1738564;81;21158;-79
2021/03/04 12:48:54;;;;;;;35.20;21.27;;;;;;;9.40;56.98;98676.36;1756152;81;21191;-79
2021/03/04 12:51:21;;;;;;;40.28;23.38;;;;;;;9.37;57.10;98673.49;1703785;83;21230;-79
2021/03/04 12:53:48;;;;;;;35.10;22.25;;;;;;;9.39;57.29;98674.70;1702525;84;21260;-79
2021/03/04 12:56:16;;;;;;;37.05;22.10;;;;;;;9.42;57.33;98675.77;1729892;82;21103;-78
2021/03/04 12:58:43;;;;;;;35.23;22.50;;;;;;;9.45;57.17;98664.48;1737107;82;21234;-78
2021/03/04 13:01:10;;;;;;;36.42;21.95;;;;;;;9.46;57.12;98670.58;1735874;82;21210;-78
2021/03/04 13:03:38;;;;;;;35.98;21.95;;;;;;;9.46;56.98;98667.94;1729370;82;21178;-78
2021/03/04 13:06:06;;;;;;;35.52;22.17;;;;;;;9.47;57.04;98659.06;1740893;82;21191;-79
2021/03/04 13:08:35;;;;;;;36.30;21.80;;;;;;;9.48;57.10;98666.02;1753387;81;21213;-79
2021/03/04 13:11:02;;;;;;;35.20;20.82;;;;;;;9.50;57.17;98658.80;1758766;81;21181;-79
2021/03/04 13:13:30;;;;;;;34.75;21.60;;;;;;;9.51;57.10;98659.16;1754730;81;21183;-79
2021/03/04 13:15:58;;;;;;;38.55;21.95;;;;;;;9.52;57.14;98655.55;1756013;82;21150;-79
2021/03/04 13:18:26;;;;;;;35.95;20.37;;;;;;;9.55;57.00;98654.46;1757677;81;21195;-79
2021/03/04 13:20:55;;;;;;;35.95;21.62;;;;;;;9.56;57.15;98650.37;1756504;81;21194;-79
2021/03/04 13:23:22;;;;;;;35.38;20.88;;;;;;;9.58;57.31;98652.41;1749829;81;21640;-78
2021/03/04 13:25:50;;;;;;;35.90;22.40;;;;;;;9.61;57.06;98658.73;1735408;82;21197;-79
2021/03/04 13:28:17;;;;;;;37.45;21.37;;;;;;;9.64;57.12;98663.78;1731303;82;21214;-79
2021/03/04 13:30:44;;;;;;;36.45;22.20;;;;;;;9.63;56.92;98662.09;1736613;82;21214;-78
2021/03/04 13:33:13;;;;;;;36.20;21.65;;;;;;;9.60;57.28;98662.34;1743885;81;21171;-78
2021/03/04 13:35:42;;;;;;;37.03;21.77;;;;;;;9.57;57.38;98657.33;1755966;81;21149;-78
2021/03/04 13:38:14;;;;;;;35.92;21.17;;;;;;;9.54;57.54;98651.46;1755722;81;21143;-78
2021/03/04 13:40:41;;;;;;;34.13;20.57;;;;;;;9.50;57.47;98653.52;1756436;81;21195;-78
2021/03/04 13:43:08;;;;;;;33.63;20.75;;;;;;;9.44;57.63;98662.80;1756758;81;21195;-78
2021/03/04 13:45:36;;;;;;;34.98;20.77;;;;;;;9.39;57.88;98668.11;1760082;81;21706;-78
2021/03/04 13:48:04;;;;;;;34.45;20.85;;;;;;;9.33;58.16;98659.73;1743229;82;21576;-78
2021/03/04 13:50:33;;;;;;;35.45;20.92;;;;;;;9.30;58.28;98678.94;1738723;82;21198;-78
2021/03/04 13:53:00;;;;;;;39.25;21.23;;;;;;;9.25;58.45;98666.11;1738994;82;21663;-78
2021/03/04 13:55:28;;;;;;;33.33;20.17;;;;;;;9.22;58.65;98667.70;1740636;82;21652;-79
2021/03/04 13:57:56;;;;;;;44.30;25.12;;;;;;;9.20;58.79;98666.98;1716530;82;21181;-79
2021/03/04 14:00:24;;;;;;;37.13;21.52;;;;;;;9.15;58.95;98663.38;1712403;83;21621;-78
2021/03/04 14:02:51;;;;;;;39.58;22.27;;;;;;;9.12;59.09;98665.46;1711316;83;21629;-79
2021/03/04 14:05:19;;;;;;;38.33;21.20;;;;;;;9.09;59.28;98653.83;1714657;82;21189;-79
2021/03/04 14:07:46;;;;;;;33.18;20.08;;;;;;;9.06;59.22;98660.69;1718462;83;21186;-78
2021/03/04 14:10:14;;;;;;;34.58;19.55;;;;;;;9.02;59.03;98656.12;1722598;83;21539;-79
2021/03/04 14:12:42;;;;;;;33.05;18.67;;;;;;;8.98;58.60;98662.13;1723840;83;21654;-78
2021/03/04 14:15:11;;;;;;;32.50;18.65;;;;;;;8.95;58.45;98656.27;1734759;81;21264;-78
2021/03/04 14:17:38;;;;;;;35.50;19.50;;;;;;;8.91;58.37;98655.67;1758817;81;21190;-78
2021/03/04 14:20:10;;;;;;;32.48;17.82;;;;;;;8.89;58.42;98652.34;1757908;81;21197;-78
2021/03/04 14:22:38;;;;;;;32.85;18.57;;;;;;;8.87;58.32;98651.61;1751862;81;22219;-78
2021/03/04 14:25:08;;;;;;;31.45;19.73;;;;;;;8.85;58.52;98653.55;1735365;82;21222;-79
2021/03/04 14:27:35;;;;;;;31.62;18.82;;;;;;;8.82;58.60;98641.92;1706512;83;21216;-79
2021/03/04 14:30:05;;;;;;;33.78;20.48;;;;;;;8.78;58.89;98648.41;1718457;82;21631;-79
2021/03/04 14:32:32;;;;;;;32.03;18.62;;;;;;;8.75;59.14;98648.67;1752278;82;21722;-78
2021/03/04 14:35:00;;;;;;;37.42;20.90;;;;;;;8.70;59.27;98647.70;1743016;82;21686;-80
2021/03/04 14:37:30;;;;;;;32.83;19.12;;;;;;;8.65;59.52;98641.48;1737717;82;21183;-80
2021/03/04 15:38:04;;;;;;;34.30;19.48;;;;;;;8.04;61.50;98636.13;1748548;76;21820;-80
2021/03/04 15:40:32;;;;;;;34.33;19.65;;;;;;;7.96;61.59;98639.81;1723188;82;21185;-80
2021/03/04 15:42:59;;;;;;;36.98;19.45;;;;;;;7.91;61.68;98634.07;1738973;82;21208;-80
2021/03/04 15:45:31;;;;;;;39.30;22.22;;;;;;;7.88;61.85;98636.95;1737250;82;21743;-80
2021/03/04 15:47:59;;;;;;;42.00;24.27;;;;;;;7.88;61.98;98638.27;1735210;81;21201;-80
2021/03/04 15:50:29;;;;;;;44.05;24.65;;;;;;;8.01;61.90;98644.25;1719658;82;21599;-80
2021/03/04 15:52:58;;;;;;;43.08;25.05;;;;;;;7.98;62.03;98636.59;1724753;82;21201;-80
2021/03/04 15:55:26;;;;;;;45.88;25.27;;;;;;;7.91;62.29;98648.55;1689717;82;21203;-80
2021/03/04 15:57:53;;;;;;;43.45;26.20;;;;;;;7.85;62.58;98649.02;1726916;81;21193;-79
2021/03/04 16:00:21;;;;;;;45.52;25.85;;;;;;;7.78;62.85;98646.52;1731861;82;21222;-79